createdAt,value
2022-11-24T00:00:17.548Z,98787.44
2022-11-24T00:00:49.031Z,98781.03
2022-11-24T00:01:20.454Z,98783.75
2022-11-24T00:01:51.888Z,98784.88
2022-11-24T00:02:23.481Z,98790.97
2022-11-24T00:02:55.193Z,98789.06
2022-11-24T00:03:26.725Z,98784.56
2022-11-24T00:03:58.195Z,98782.00
2022-11-24T00:04:29.567Z,98789.69
2022-11-24T00:05:00.977Z,98783.44
2022-11-24T00:05:32.357Z,98791.94
2022-11-24T00:06:03.738Z,98790.00
2022-11-24T00:06:35.226Z,98790.50
2022-11-24T00:07:06.705Z,98784.88
2022-11-24T00:07:38.364Z,98795.94
2022-11-24T00:08:09.950Z,98796.91
2022-11-24T00:08:41.359Z,98794.34
2022-11-24T00:09:12.848Z,98792.75
2022-11-24T00:09:44.265Z,98795.16
2022-11-24T00:10:15.699Z,98795.78
2022-11-24T00:10:47.168Z,98795.47
2022-11-24T00:11:18.539Z,98801.25
2022-11-24T00:11:49.931Z,98800.59
2022-11-24T00:12:21.362Z,98808.63
2022-11-24T00:12:52.796Z,98808.31
2022-11-24T00:13:24.359Z,98807.50
2022-11-24T00:13:55.820Z,98801.41
2022-11-24T00:14:27.274Z,98800.44
2022-11-24T00:14:58.669Z,98804.94
2022-11-24T00:15:30.228Z,98803.34
2022-11-24T00:16:01.619Z,98803.81
2022-11-24T00:16:33.022Z,98803.19
2022-11-24T00:17:04.523Z,98807.03
2022-11-24T00:17:36.004Z,98801.56
2022-11-24T00:18:07.418Z,98808.94
2022-11-24T00:18:38.838Z,98804.63
2022-11-24T00:19:10.264Z,98803.50
2022-11-24T00:19:41.804Z,98798.84
2022-11-24T00:20:13.225Z,98808.63
2022-11-24T00:20:44.649Z,98811.69
2022-11-24T00:21:16.048Z,98800.75
2022-11-24T00:21:47.483Z,98796.13
2022-11-24T00:22:18.889Z,98800.75
2022-11-24T00:22:50.297Z,98803.81
2022-11-24T00:23:21.751Z,98805.41
2022-11-24T00:23:53.193Z,98811.69
2022-11-24T00:24:24.596Z,98803.97
2022-11-24T00:24:56.105Z,98803.81
2022-11-24T00:25:27.497Z,98808.78
2022-11-24T00:25:58.955Z,98810.72
2022-11-24T00:26:30.377Z,98816.66
2022-11-24T00:27:01.804Z,98806.88
2022-11-24T00:27:33.170Z,98798.34
2022-11-24T00:28:04.619Z,98800.28
2022-11-24T00:28:36.047Z,98797.56
2022-11-24T00:29:07.470Z,98799.81
2022-11-24T00:29:38.935Z,98806.22
2022-11-24T00:30:10.454Z,98799.81
2022-11-24T00:30:41.919Z,98795.47
2022-11-24T00:31:16.963Z,98794.66
2022-11-24T00:31:49.006Z,98798.53
2022-11-24T00:32:20.382Z,98805.41
2022-11-24T00:32:51.751Z,98804.63
2022-11-24T00:33:23.180Z,98807.03
2022-11-24T00:33:54.566Z,98810.56
2022-11-24T00:34:25.969Z,98802.84
2022-11-24T00:34:57.367Z,98809.91
2022-11-24T00:35:28.789Z,98808.16
2022-11-24T00:36:00.218Z,98807.34
2022-11-24T00:36:31.636Z,98810.06
2022-11-24T00:37:03.085Z,98807.03
2022-11-24T00:37:34.551Z,98803.19
2022-11-24T00:38:05.942Z,98800.75
2022-11-24T00:38:37.343Z,98803.34
2022-11-24T00:39:08.732Z,98809.75
2022-11-24T00:39:40.138Z,98797.72
2022-11-24T00:40:11.529Z,98805.59
2022-11-24T00:40:42.987Z,98809.13
2022-11-24T00:41:14.415Z,98798.19
2022-11-24T00:41:45.778Z,98809.44
2022-11-24T00:42:17.182Z,98799.66
2022-11-24T00:42:48.564Z,98803.19
2022-11-24T00:43:19.998Z,98802.84
2022-11-24T00:43:51.426Z,98797.41
2022-11-24T00:44:22.821Z,98799.66
2022-11-24T00:44:54.210Z,98805.75
2022-11-24T00:45:25.637Z,98805.09
2022-11-24T00:45:57.156Z,98807.97
2022-11-24T00:46:28.784Z,98804.63
2022-11-24T00:47:00.534Z,98806.72
2022-11-24T00:47:32.030Z,98808.94
2022-11-24T00:48:03.537Z,98807.66
2022-11-24T00:48:35.027Z,98799.16
2022-11-24T00:49:06.461Z,98796.91
2022-11-24T00:49:37.892Z,98814.88
2022-11-24T00:50:09.276Z,98804.28
2022-11-24T00:50:40.686Z,98805.09
2022-11-24T00:51:12.112Z,98810.88
2022-11-24T00:51:43.523Z,98802.69
2022-11-24T00:52:14.941Z,98814.41
2022-11-24T00:52:46.365Z,98805.91
2022-11-24T00:53:17.774Z,98803.97
2022-11-24T00:53:49.191Z,98811.03
2022-11-24T00:54:20.594Z,98827.09
2022-11-24T00:54:51.997Z,98802.84
2022-11-24T00:55:23.413Z,98804.13
2022-11-24T00:55:54.809Z,98807.81
2022-11-24T00:56:26.250Z,98808.16
2022-11-24T00:56:57.640Z,98806.22
2022-11-24T00:57:29.118Z,98808.94
2022-11-24T00:58:00.525Z,98814.09
2022-11-24T00:58:31.969Z,98811.84
2022-11-24T00:59:03.496Z,98810.72
2022-11-24T00:59:34.905Z,98812.81
2022-11-24T01:00:06.328Z,98828.22
2022-11-24T01:00:37.765Z,98807.50
2022-11-24T01:01:09.237Z,98820.97
2022-11-24T01:01:40.704Z,98824.34
2022-11-24T01:02:12.183Z,98815.53
2022-11-24T01:02:43.775Z,98814.41
2022-11-24T01:03:15.208Z,98813.91
2022-11-24T01:03:46.601Z,98814.88
2022-11-24T01:04:17.993Z,98817.13
2022-11-24T01:04:49.401Z,98824.50
2022-11-24T01:05:20.843Z,98814.56
2022-11-24T01:05:52.246Z,98821.47
2022-11-24T01:06:23.674Z,98817.94
2022-11-24T01:06:55.026Z,98812.66
2022-11-24T01:07:26.481Z,98831.91
2022-11-24T01:07:58.024Z,98811.53
2022-11-24T01:08:29.461Z,98821.78
2022-11-24T01:09:00.914Z,98829.66
2022-11-24T01:09:32.276Z,98828.53
2022-11-24T01:10:03.722Z,98825.81
2022-11-24T01:10:35.169Z,98828.03
2022-11-24T01:11:06.552Z,98827.06
2022-11-24T01:11:37.977Z,98829.81
2022-11-24T01:12:09.440Z,98828.38
2022-11-24T01:12:40.807Z,98825.81
2022-11-24T01:13:12.308Z,98835.28
2022-11-24T01:13:43.703Z,98818.41
2022-11-24T01:14:15.108Z,98831.25
2022-11-24T01:14:46.482Z,98827.41
2022-11-24T01:15:17.914Z,98825.97
2022-11-24T01:15:49.357Z,98832.06
2022-11-24T01:16:20.836Z,98831.75
2022-11-24T01:16:52.289Z,98839.75
2022-11-24T01:17:23.693Z,98833.81
2022-11-24T01:17:55.175Z,98829.97
2022-11-24T01:18:26.660Z,98836.22
2022-11-24T01:18:58.086Z,98843.78
2022-11-24T01:19:29.482Z,98838.16
2022-11-24T01:20:00.910Z,98840.72
2022-11-24T01:20:32.332Z,98838.31
2022-11-24T01:21:08.541Z,98840.25
2022-11-24T01:21:41.352Z,98841.69
2022-11-24T01:22:12.901Z,98837.03
2022-11-24T01:22:44.392Z,98840.88
2022-11-24T01:23:15.859Z,98841.69
2022-11-24T01:23:47.326Z,98834.47
2022-11-24T01:24:18.764Z,98829.34
2022-11-24T01:24:50.335Z,98847.47
2022-11-24T01:25:21.899Z,98833.50
2022-11-24T01:25:53.345Z,98836.22
2022-11-24T01:26:24.819Z,98835.09
2022-11-24T01:26:56.228Z,98831.91
2022-11-24T01:27:27.705Z,98839.28
2022-11-24T01:27:59.150Z,98837.34
2022-11-24T01:28:30.608Z,98842.00
2022-11-24T01:29:02.060Z,98836.88
2022-11-24T01:29:33.552Z,98833.50
2022-11-24T01:30:04.965Z,98846.03
2022-11-24T01:30:36.506Z,98842.00
2022-11-24T01:31:08.045Z,98844.41
2022-11-24T01:31:39.506Z,98848.25
2022-11-24T01:32:10.908Z,98843.28
2022-11-24T01:32:42.365Z,98833.50
2022-11-24T01:33:13.798Z,98840.09
2022-11-24T01:33:45.235Z,98841.38
2022-11-24T01:34:16.683Z,98842.97
2022-11-24T01:34:48.122Z,98841.53
2022-11-24T01:35:19.581Z,98851.31
2022-11-24T01:35:51.020Z,98842.16
2022-11-24T01:36:22.520Z,98852.28
2022-11-24T01:36:53.947Z,98855.31
2022-11-24T01:37:25.402Z,98852.59
2022-11-24T01:37:56.863Z,98849.88
2022-11-24T01:38:28.434Z,98851.47
2022-11-24T01:38:59.908Z,98844.09
2022-11-24T01:39:31.423Z,98845.22
2022-11-24T01:40:02.889Z,98845.53
2022-11-24T01:40:34.408Z,98844.41
2022-11-24T01:41:05.781Z,98855.31
2022-11-24T01:41:37.184Z,98839.59
2022-11-24T01:42:08.604Z,98846.81
2022-11-24T01:42:40.008Z,98855.16
2022-11-24T01:43:11.469Z,98852.75
2022-11-24T01:43:42.888Z,98846.97
2022-11-24T01:44:14.319Z,98849.38
2022-11-24T01:44:45.861Z,98851.31
2022-11-24T01:45:17.254Z,98847.78
2022-11-24T01:45:48.683Z,98851.31
2022-11-24T01:46:20.174Z,98852.91
2022-11-24T01:46:51.615Z,98846.50
2022-11-24T01:47:23.002Z,98856.13
2022-11-24T01:47:54.421Z,98853.41
2022-11-24T01:48:27.815Z,98859.19
2022-11-24T01:49:00.036Z,98857.72
2022-11-24T01:49:31.432Z,98856.94
2022-11-24T01:50:02.879Z,98845.22
2022-11-24T01:50:34.309Z,98853.41
2022-11-24T01:51:05.803Z,98853.72
2022-11-24T01:51:37.175Z,98851.00
2022-11-24T01:52:08.572Z,98856.44
2022-11-24T01:52:40.000Z,98848.25
2022-11-24T01:53:11.411Z,98850.66
2022-11-24T01:53:42.792Z,98853.72
2022-11-24T01:54:14.205Z,98849.06
2022-11-24T01:54:45.591Z,98852.91
2022-11-24T01:55:17.009Z,98858.38
2022-11-24T01:55:48.429Z,98863.50
2022-11-24T01:56:19.890Z,98855.31
2022-11-24T01:56:51.273Z,98863.81
2022-11-24T01:57:22.705Z,98848.75
2022-11-24T01:57:54.121Z,98855.66
2022-11-24T01:58:25.541Z,98850.66
2022-11-24T01:58:56.933Z,98858.38
2022-11-24T01:59:28.321Z,98855.66
2022-11-24T01:59:59.735Z,98856.94
2022-11-24T02:00:31.215Z,98869.28
2022-11-24T02:01:02.704Z,98858.38
2022-11-24T02:01:34.225Z,98857.72
2022-11-24T02:02:05.769Z,98853.09
2022-11-24T02:02:37.260Z,98862.38
2022-11-24T02:03:08.711Z,98860.94
2022-11-24T02:03:40.133Z,98864.31
2022-11-24T02:04:11.533Z,98859.97
2022-11-24T02:04:42.996Z,98861.91
2022-11-24T02:05:14.444Z,98864.63
2022-11-24T02:05:45.966Z,98858.53
2022-11-24T02:06:17.377Z,98853.88
2022-11-24T02:06:48.792Z,98859.19
2022-11-24T02:07:20.265Z,98855.81
2022-11-24T02:07:51.801Z,98856.44
2022-11-24T02:08:23.247Z,98858.38
2022-11-24T02:08:54.699Z,98854.53
2022-11-24T02:09:26.200Z,98854.84
2022-11-24T02:09:57.633Z,98854.53
2022-11-24T02:10:29.108Z,98860.78
2022-11-24T02:11:00.624Z,98863.03
2022-11-24T02:11:32.012Z,98861.09
2022-11-24T02:12:03.500Z,98863.19
2022-11-24T02:12:34.894Z,98862.38
2022-11-24T02:13:06.281Z,98866.72
2022-11-24T02:13:37.722Z,98863.81
2022-11-24T02:14:09.127Z,98859.19
2022-11-24T02:14:40.527Z,98861.09
2022-11-24T02:15:11.959Z,98859.81
2022-11-24T02:15:43.449Z,98871.06
2022-11-24T02:16:14.942Z,98869.63
2022-11-24T02:16:46.409Z,98866.41
2022-11-24T02:17:17.811Z,98867.34
2022-11-24T02:17:49.238Z,98865.44
2022-11-24T02:18:20.675Z,98872.50
2022-11-24T02:18:52.080Z,98872.50
2022-11-24T02:19:23.470Z,98880.69
2022-11-24T02:19:54.879Z,98878.59
2022-11-24T02:20:26.316Z,98870.72
2022-11-24T02:20:57.727Z,98869.91
2022-11-24T02:21:29.144Z,98871.53
2022-11-24T02:22:00.569Z,98868.47
2022-11-24T02:22:31.941Z,98872.97
2022-11-24T02:23:03.425Z,98876.19
2022-11-24T02:23:34.882Z,98870.88
2022-11-24T02:24:06.359Z,98873.63
2022-11-24T02:24:37.733Z,98873.94
2022-11-24T02:25:09.144Z,98870.88
2022-11-24T02:25:40.546Z,98877.94
2022-11-24T02:26:12.094Z,98876.66
2022-11-24T02:26:43.651Z,98872.81
2022-11-24T02:27:15.104Z,98877.78
2022-11-24T02:27:52.257Z,98872.31
2022-11-24T02:28:25.364Z,98879.38
2022-11-24T02:28:57.050Z,98874.56
2022-11-24T02:29:28.491Z,98879.06
2022-11-24T02:29:59.896Z,98876.66
2022-11-24T02:30:31.439Z,98875.53
2022-11-24T02:31:02.997Z,98876.03
2022-11-24T02:31:34.474Z,98879.38
2022-11-24T02:32:06.014Z,98881.94
2022-11-24T02:32:37.450Z,98878.75
2022-11-24T02:33:08.861Z,98885.66
2022-11-24T02:33:40.336Z,98879.88
2022-11-24T02:34:11.775Z,98893.19
2022-11-24T02:34:43.170Z,98879.56
2022-11-24T02:35:14.608Z,98878.28
2022-11-24T02:35:46.004Z,98885.16
2022-11-24T02:36:17.391Z,98882.13
2022-11-24T02:36:48.852Z,98880.03
2022-11-24T02:37:20.256Z,98887.09
2022-11-24T02:37:51.677Z,98877.31
2022-11-24T02:38:23.041Z,98879.72
2022-11-24T02:38:54.451Z,98877.47
2022-11-24T02:39:25.850Z,98883.25
2022-11-24T02:39:57.277Z,98881.16
2022-11-24T02:40:28.685Z,98891.44
2022-11-24T02:41:00.105Z,98873.44
2022-11-24T02:41:31.507Z,98872.16
2022-11-24T02:42:02.920Z,98869.75
2022-11-24T02:42:34.333Z,98877.78
2022-11-24T02:43:05.735Z,98878.75
2022-11-24T02:43:37.203Z,98876.97
2022-11-24T02:44:08.564Z,98874.09
2022-11-24T02:44:40.116Z,98876.00
2022-11-24T02:45:11.511Z,98872.31
2022-11-24T02:45:42.909Z,98878.59
2022-11-24T02:46:14.388Z,98885.16
2022-11-24T02:46:45.877Z,98886.28
2022-11-24T02:47:17.347Z,98872.00
2022-11-24T02:47:48.773Z,98877.47
2022-11-24T02:48:20.198Z,98878.91
2022-11-24T02:48:51.657Z,98882.91
2022-11-24T02:49:23.084Z,98880.69
2022-11-24T02:49:54.526Z,98877.78
2022-11-24T02:50:25.970Z,98880.19
2022-11-24T02:50:57.347Z,98881.16
2022-11-24T02:51:28.749Z,98879.88
2022-11-24T02:52:00.156Z,98878.28
2022-11-24T02:52:31.594Z,98886.47
2022-11-24T02:53:03.051Z,98888.69
2022-11-24T02:53:34.457Z,98883.41
2022-11-24T02:54:05.926Z,98881.16
2022-11-24T02:54:37.479Z,98890.31
2022-11-24T02:55:09.011Z,98891.44
2022-11-24T02:55:40.393Z,98885.66
2022-11-24T02:56:11.786Z,98888.38
2022-11-24T02:56:43.181Z,98885.81
2022-11-24T02:57:14.626Z,98886.78
2022-11-24T02:57:46.021Z,98899.59
2022-11-24T02:58:17.411Z,98890.47
2022-11-24T02:58:48.783Z,98908.28
2022-11-24T02:59:20.225Z,98902.03
2022-11-24T02:59:51.649Z,98902.03
2022-11-24T03:00:23.078Z,98895.59
2022-11-24T03:00:54.484Z,98897.22
2022-11-24T03:01:26.019Z,98897.69
2022-11-24T03:01:57.558Z,98905.88
2022-11-24T03:02:29.010Z,98898.81
2022-11-24T03:03:00.502Z,98902.34
2022-11-24T03:03:31.933Z,98903.78
2022-11-24T03:04:03.330Z,98910.03
2022-11-24T03:04:34.916Z,98898.81
2022-11-24T03:05:06.511Z,98906.81
2022-11-24T03:05:37.908Z,98905.38
2022-11-24T03:06:09.317Z,98908.59
2022-11-24T03:06:40.712Z,98909.09
2022-11-24T03:07:12.184Z,98912.44
2022-11-24T03:07:43.685Z,98906.66
2022-11-24T03:08:15.154Z,98908.09
2022-11-24T03:08:46.594Z,98908.44
2022-11-24T03:09:18.011Z,98915.50
2022-11-24T03:09:49.426Z,98907.31
2022-11-24T03:10:20.870Z,98913.25
2022-11-24T03:10:52.280Z,98915.81
2022-11-24T03:11:23.681Z,98910.66
2022-11-24T03:11:55.040Z,98909.88
2022-11-24T03:12:26.551Z,98913.41
2022-11-24T03:12:57.950Z,98910.84
2022-11-24T03:13:29.329Z,98909.41
2022-11-24T03:14:00.794Z,98919.50
2022-11-24T03:14:32.562Z,98905.06
2022-11-24T03:15:04.279Z,98902.81
2022-11-24T03:15:35.746Z,98910.69
2022-11-24T03:16:07.237Z,98905.22
2022-11-24T03:16:38.640Z,98909.09
2022-11-24T03:17:10.075Z,98908.75
2022-11-24T03:17:41.536Z,98906.53
2022-11-24T03:18:12.994Z,98910.19
2022-11-24T03:18:44.400Z,98918.38
2022-11-24T03:19:15.878Z,98911.00
2022-11-24T03:19:47.299Z,98916.94
2022-11-24T03:20:18.678Z,98911.50
2022-11-24T03:20:50.084Z,98907.97
2022-11-24T03:21:21.491Z,98912.13
2022-11-24T03:21:52.898Z,98916.63
2022-11-24T03:22:24.293Z,98907.31
2022-11-24T03:22:55.707Z,98907.31
2022-11-24T03:23:27.134Z,98913.56
2022-11-24T03:23:58.551Z,98898.81
2022-11-24T03:24:30.048Z,98912.13
2022-11-24T03:25:01.446Z,98912.44
2022-11-24T03:25:32.866Z,98908.28
2022-11-24T03:26:04.269Z,98917.59
2022-11-24T03:26:35.652Z,98909.88
2022-11-24T03:27:07.071Z,98911.50
2022-11-24T03:27:38.458Z,98910.53
2022-11-24T03:28:09.909Z,98915.34
2022-11-24T03:28:41.287Z,98914.84
2022-11-24T03:29:12.737Z,98912.94
2022-11-24T03:29:44.141Z,98909.41
2022-11-24T03:30:15.525Z,98903.47
2022-11-24T03:30:47.028Z,98916.47
2022-11-24T03:31:18.472Z,98910.69
2022-11-24T03:31:49.897Z,98905.56
2022-11-24T03:32:21.286Z,98912.75
2022-11-24T03:32:52.717Z,98907.47
2022-11-24T03:33:24.111Z,98909.09
2022-11-24T03:33:55.511Z,98915.66
2022-11-24T03:34:26.934Z,98905.56
2022-11-24T03:34:58.332Z,98915.81
2022-11-24T03:35:29.769Z,98927.22
2022-11-24T03:36:01.171Z,98906.53
2022-11-24T03:36:32.582Z,98911.50
2022-11-24T03:37:03.992Z,98912.13
2022-11-24T03:37:35.404Z,98910.69
2022-11-24T03:38:06.822Z,98918.22
2022-11-24T03:38:38.238Z,98915.97
2022-11-24T03:39:09.651Z,98913.25
2022-11-24T03:39:41.131Z,98912.63
2022-11-24T03:40:12.527Z,98907.47
2022-11-24T03:40:43.913Z,98914.53
2022-11-24T03:41:15.267Z,98913.72
2022-11-24T03:41:46.702Z,98916.47
2022-11-24T03:42:18.128Z,98914.84
2022-11-24T03:42:49.565Z,98910.69
2022-11-24T03:43:20.965Z,98917.25
2022-11-24T03:43:52.461Z,98914.22
2022-11-24T03:44:23.914Z,98910.84
2022-11-24T03:44:55.381Z,98908.75
2022-11-24T03:46:18.197Z,98917.75
2022-11-24T03:46:49.667Z,98911.31
2022-11-24T03:47:21.162Z,98917.91
2022-11-24T03:47:52.573Z,98921.78
2022-11-24T03:48:23.963Z,98919.53
2022-11-24T03:48:55.356Z,98907.66
2022-11-24T03:49:26.809Z,98918.06
2022-11-24T03:49:58.416Z,98918.56
2022-11-24T03:50:29.811Z,98907.66
2022-11-24T03:51:01.217Z,98915.34
2022-11-24T03:51:32.610Z,98918.56
2022-11-24T03:52:07.988Z,98915.19
2022-11-24T03:52:39.927Z,98912.63
2022-11-24T03:53:11.451Z,98902.03
2022-11-24T03:53:42.872Z,98907.00
2022-11-24T03:54:14.294Z,98912.63
2022-11-24T03:54:45.729Z,98919.84
2022-11-24T03:55:17.323Z,98916.63
2022-11-24T03:55:48.827Z,98917.75
2022-11-24T03:56:20.268Z,98911.50
2022-11-24T03:56:51.729Z,98917.44
2022-11-24T03:57:23.359Z,98915.81
2022-11-24T03:57:54.766Z,98920.97
2022-11-24T03:58:26.164Z,98917.13
2022-11-24T03:58:57.587Z,98926.09
2022-11-24T03:59:29.007Z,98922.56
2022-11-24T04:00:00.405Z,98924.50
2022-11-24T04:00:32.014Z,98925.63
2022-11-24T04:01:03.559Z,98917.13
2022-11-24T04:01:35.076Z,98931.72
2022-11-24T04:02:06.744Z,98931.25
2022-11-24T04:02:38.291Z,98931.72
2022-11-24T04:03:09.862Z,98921.13
2022-11-24T04:03:41.391Z,98924.50
2022-11-24T04:04:12.903Z,98922.09
2022-11-24T04:04:49.538Z,98922.41
2022-11-24T04:05:21.341Z,98921.28
2022-11-24T04:05:52.885Z,98929.97
2022-11-24T04:06:24.394Z,98935.09
2022-11-24T04:06:55.874Z,98922.09
2022-11-24T04:07:27.377Z,98924.19
2022-11-24T04:07:58.989Z,98928.19
2022-11-24T04:08:30.413Z,98928.03
2022-11-24T04:09:01.870Z,98924.81
2022-11-24T04:09:33.322Z,98928.34
2022-11-24T04:10:04.908Z,98930.78
2022-11-24T04:10:36.283Z,98929.00
2022-11-24T04:11:07.958Z,98933.66
2022-11-24T04:11:39.595Z,98930.78
2022-11-24T04:12:11.095Z,98935.59
2022-11-24T04:12:42.593Z,98939.13
2022-11-24T04:13:14.018Z,98932.84
2022-11-24T04:13:45.434Z,98937.34
2022-11-24T04:14:16.849Z,98939.13
2022-11-24T04:14:48.290Z,98943.28
2022-11-24T04:15:19.698Z,98939.25
2022-11-24T04:15:51.192Z,98940.88
2022-11-24T04:16:22.696Z,98948.56
2022-11-24T04:16:54.213Z,98938.78
2022-11-24T04:17:25.577Z,98944.41
2022-11-24T04:17:56.991Z,98946.97
2022-11-24T04:18:28.502Z,98941.03
2022-11-24T04:18:59.911Z,98948.72
2022-11-24T04:19:31.313Z,98944.72
2022-11-24T04:20:02.709Z,98944.41
2022-11-24T04:20:34.081Z,98940.56
2022-11-24T04:21:05.480Z,98947.63
2022-11-24T04:21:37.001Z,98937.03
2022-11-24T04:22:08.425Z,98947.94
2022-11-24T04:22:39.838Z,98946.16
2022-11-24T04:23:11.268Z,98945.34
2022-11-24T04:23:42.673Z,98957.38
2022-11-24T04:24:14.103Z,98941.50
2022-11-24T04:24:45.480Z,98937.66
2022-11-24T04:25:16.874Z,98940.69
2022-11-24T04:25:48.264Z,98954.81
2022-11-24T04:26:19.644Z,98947.94
2022-11-24T04:26:51.112Z,98942.00
2022-11-24T04:27:22.553Z,98948.72
2022-11-24T04:27:53.929Z,98951.78
2022-11-24T04:28:25.329Z,98943.59
2022-11-24T04:28:56.721Z,98951.28
2022-11-24T04:29:28.120Z,98953.53
2022-11-24T04:29:59.555Z,98944.53
2022-11-24T04:30:30.955Z,98950.19
2022-11-24T04:31:02.427Z,98938.78
2022-11-24T04:31:33.890Z,98946.97
2022-11-24T04:32:05.299Z,98955.63
2022-11-24T04:32:36.725Z,98953.22
2022-11-24T04:33:08.201Z,98950.84
2022-11-24T04:33:39.583Z,98956.13
2022-11-24T04:34:10.951Z,98953.38
2022-11-24T04:34:42.379Z,98958.66
2022-11-24T04:35:13.819Z,98955.13
2022-11-24T04:35:45.335Z,98956.75
2022-11-24T04:36:16.735Z,98955.63
2022-11-24T04:36:48.129Z,98956.75
2022-11-24T04:37:19.510Z,98967.66
2022-11-24T04:37:50.960Z,98965.41
2022-11-24T04:39:20.073Z,98957.25
2022-11-24T04:39:24.422Z,98958.53
2022-11-24T04:39:58.204Z,98963.66
2022-11-24T04:40:29.783Z,98966.25
2022-11-24T04:41:01.277Z,98970.59
2022-11-24T04:41:32.711Z,98962.09
2022-11-24T04:42:04.185Z,98978.47
2022-11-24T04:42:35.650Z,98966.09
2022-11-24T04:43:07.106Z,98965.28
2022-11-24T04:43:40.725Z,98969.13
2022-11-24T04:44:12.627Z,98968.19
2022-11-24T04:44:44.130Z,98971.53
2022-11-24T04:45:15.573Z,98959.34
2022-11-24T04:45:47.146Z,98960.28
2022-11-24T04:46:18.609Z,98966.06
2022-11-24T04:46:50.194Z,98963.50
2022-11-24T04:47:21.620Z,98974.91
2022-11-24T04:47:53.054Z,98968.81
2022-11-24T04:48:24.411Z,98979.56
2022-11-24T04:48:55.816Z,98976.66
2022-11-24T04:49:27.200Z,98972.31
2022-11-24T04:49:58.649Z,98971.69
2022-11-24T04:50:30.212Z,98975.84
2022-11-24T04:51:01.711Z,98978.44
2022-11-24T04:51:33.119Z,98975.03
2022-11-24T04:52:04.661Z,98976.03
2022-11-24T04:52:36.054Z,98977.94
2022-11-24T04:53:07.456Z,98981.00
2022-11-24T04:53:38.825Z,98981.34
2022-11-24T04:54:10.231Z,98970.56
2022-11-24T04:54:41.622Z,98981.16
2022-11-24T04:55:13.046Z,98976.34
2022-11-24T04:55:44.504Z,98986.28
2022-11-24T04:56:15.983Z,98980.81
2022-11-24T04:56:47.401Z,98981.94
2022-11-24T04:57:18.812Z,98980.66
2022-11-24T04:57:50.241Z,98976.47
2022-11-24T04:58:21.628Z,98986.47
2022-11-24T04:58:53.007Z,98984.38
2022-11-24T04:59:24.371Z,98978.44
2022-11-24T04:59:55.780Z,98987.59
2022-11-24T05:00:27.206Z,98997.22
2022-11-24T05:00:58.617Z,98991.75
2022-11-24T05:01:30.202Z,98996.09
2022-11-24T05:02:01.754Z,98996.91
2022-11-24T05:02:33.206Z,98996.41
2022-11-24T05:03:04.616Z,98997.53
2022-11-24T05:03:35.985Z,98994.31
2022-11-24T05:04:07.423Z,98995.59
2022-11-24T05:04:38.967Z,98992.38
2022-11-24T05:05:10.380Z,98998.50
2022-11-24T05:05:41.730Z,99008.00
2022-11-24T05:06:13.168Z,99012.16
2022-11-24T05:06:44.597Z,99010.06
2022-11-24T05:07:18.714Z,99003.78
2022-11-24T05:07:50.831Z,98999.13
2022-11-24T05:08:22.246Z,99010.22
2022-11-24T05:08:53.665Z,99015.34
2022-11-24T05:09:41.761Z,99009.91
2022-11-24T05:10:16.504Z,99013.91
2022-11-24T05:10:47.905Z,99010.06
2022-11-24T05:11:19.287Z,99009.25
2022-11-24T05:11:50.765Z,99002.00
2022-11-24T05:12:22.209Z,99003.97
2022-11-24T05:12:53.671Z,99008.31
2022-11-24T05:13:25.029Z,99011.66
2022-11-24T05:13:56.410Z,99001.72
2022-11-24T05:14:27.809Z,99005.22
2022-11-24T05:14:59.227Z,99003.63
2022-11-24T05:15:30.626Z,99003.31
2022-11-24T05:16:02.053Z,99007.16
2022-11-24T05:16:33.631Z,99012.94
2022-11-24T05:17:05.173Z,99009.41
2022-11-24T05:17:36.601Z,99011.66
2022-11-24T05:18:08.046Z,99012.47
2022-11-24T05:18:39.450Z,99012.47
2022-11-24T05:19:10.954Z,99023.88
2022-11-24T05:19:42.387Z,99014.75
2022-11-24T05:20:13.816Z,99010.53
2022-11-24T05:20:45.227Z,99012.94
2022-11-24T05:21:16.643Z,99014.88
2022-11-24T05:21:48.151Z,99019.22
2022-11-24T05:22:19.636Z,99016.63
2022-11-24T05:22:51.092Z,99014.88
2022-11-24T05:23:22.489Z,99015.69
2022-11-24T05:23:53.924Z,99014.25
2022-11-24T05:24:25.314Z,99015.84
2022-11-24T05:24:56.702Z,99021.47
2022-11-24T05:25:28.076Z,99021.94
2022-11-24T05:25:59.442Z,99025.97
2022-11-24T05:26:30.847Z,99027.22
2022-11-24T05:27:02.223Z,99033.50
2022-11-24T05:27:33.688Z,99028.53
2022-11-24T05:28:05.102Z,99030.28
2022-11-24T05:28:36.542Z,99026.44
2022-11-24T05:29:07.924Z,99034.78
2022-11-24T05:29:39.327Z,99026.09
2022-11-24T05:30:10.775Z,99035.59
2022-11-24T05:30:42.180Z,99040.72
2022-11-24T05:31:13.624Z,99033.34
2022-11-24T05:31:45.156Z,99029.63
2022-11-24T05:32:16.600Z,99034.97
2022-11-24T05:32:48.020Z,99031.41
2022-11-24T05:33:19.431Z,99030.63
2022-11-24T05:33:50.798Z,99037.38
2022-11-24T05:34:22.231Z,99032.22
2022-11-24T05:34:53.666Z,99033.03
2022-11-24T05:35:25.085Z,99034.28
2022-11-24T05:35:56.489Z,99036.41
2022-11-24T05:36:27.877Z,99031.25
2022-11-24T05:36:59.340Z,99042.16
2022-11-24T05:37:30.737Z,99042.97
2022-11-24T05:38:02.183Z,99036.72
2022-11-24T05:38:33.650Z,99033.50
2022-11-24T05:39:05.095Z,99043.09
2022-11-24T05:39:36.510Z,99034.28
2022-11-24T05:40:07.909Z,99034.78
2022-11-24T05:40:39.319Z,99041.19
2022-11-24T05:41:10.750Z,99043.44
2022-11-24T05:41:42.153Z,99043.91
2022-11-24T05:42:13.550Z,99039.75
2022-11-24T05:42:47.754Z,99045.03
2022-11-24T05:43:19.627Z,99041.50
2022-11-24T05:43:51.060Z,99038.31
2022-11-24T05:44:22.500Z,99042.00
2022-11-24T05:44:53.939Z,99042.00
2022-11-24T05:45:25.348Z,99048.25
2022-11-24T05:45:56.780Z,99045.84
2022-11-24T05:46:28.284Z,99048.44
2022-11-24T05:46:59.709Z,99045.06
2022-11-24T05:47:31.144Z,99042.66
2022-11-24T05:48:02.552Z,99044.41
2022-11-24T05:48:34.038Z,99038.31
2022-11-24T05:49:05.468Z,99043.78
2022-11-24T05:49:36.868Z,99048.25
2022-11-24T05:50:08.304Z,99046.00
2022-11-24T05:50:39.713Z,99039.56
2022-11-24T05:51:11.172Z,99044.72
2022-11-24T05:51:42.574Z,99043.91
2022-11-24T05:52:14.004Z,99047.44
2022-11-24T05:52:45.393Z,99048.13
2022-11-24T05:53:16.820Z,99047.63
2022-11-24T05:53:48.264Z,99043.63
2022-11-24T05:54:19.661Z,99050.03
2022-11-24T05:54:51.046Z,99041.34
2022-11-24T05:55:22.448Z,99047.63
2022-11-24T05:55:53.851Z,99047.94
2022-11-24T05:56:25.239Z,99053.41
2022-11-24T05:56:56.643Z,99050.97
2022-11-24T05:57:28.070Z,99052.44
2022-11-24T05:57:59.558Z,99057.72
2022-11-24T05:58:31.157Z,99060.31
2022-11-24T05:59:08.221Z,99054.22
2022-11-24T05:59:41.483Z,99058.22
2022-11-24T06:00:12.980Z,99060.63
2022-11-24T06:00:44.431Z,99062.88
2022-11-24T06:01:15.914Z,99061.56
2022-11-24T06:01:47.474Z,99063.19
2022-11-24T06:02:19.224Z,99058.88
2022-11-24T06:02:50.938Z,99063.69
2022-11-24T06:03:22.566Z,99068.19
2022-11-24T06:03:53.968Z,99061.13
2022-11-24T06:04:25.595Z,99063.06
2022-11-24T06:04:57.020Z,99066.09
2022-11-24T06:05:28.523Z,99050.34
2022-11-24T06:06:00.102Z,99057.06
2022-11-24T06:06:31.623Z,99062.53
2022-11-24T06:07:03.135Z,99075.72
2022-11-24T06:07:34.720Z,99064.16
2022-11-24T06:08:06.355Z,99061.56
2022-11-24T06:08:37.906Z,99074.28
2022-11-24T06:09:09.496Z,99064.78
2022-11-24T06:09:41.075Z,99067.03
2022-11-24T06:10:12.527Z,99061.94
2022-11-24T06:10:44.014Z,99063.22
2022-11-24T06:11:15.418Z,99065.91
2022-11-24T06:11:46.803Z,99065.91